createdAt,value
2019-05-19T00:00:54.091Z,17.20
2019-05-19T00:03:24.249Z,17.10
2019-05-19T00:05:54.434Z,17.10
2019-05-19T00:08:24.756Z,17.10
2019-05-19T00:10:54.879Z,17.10
2019-05-19T00:13:25.214Z,17.10
2019-05-19T00:15:55.318Z,17.10
2019-05-19T00:18:27.703Z,17.00
2019-05-19T00:20:57.810Z,17.00
2019-05-19T00:23:27.929Z,17.00
2019-05-19T00:26:00.508Z,17.00
2019-05-19T00:28:30.835Z,16.90
2019-05-19T00:31:00.952Z,16.90
2019-05-19T00:33:31.273Z,16.80
2019-05-19T00:36:01.392Z,16.80
2019-05-19T00:38:31.749Z,16.90
2019-05-19T00:41:01.836Z,16.90
2019-05-19T00:43:31.955Z,16.80
2019-05-19T00:46:02.073Z,16.80
2019-05-19T00:48:32.194Z,16.80
2019-05-19T00:51:02.314Z,16.80
2019-05-19T00:53:32.434Z,16.80
2019-05-19T00:56:02.861Z,16.70
2019-05-19T00:58:34.902Z,16.70
2019-05-19T01:01:05.073Z,16.70
2019-05-19T01:03:35.365Z,16.70
2019-05-19T01:06:05.893Z,16.80
2019-05-19T01:08:36.222Z,16.70
2019-05-19T01:11:06.338Z,16.70
2019-05-19T01:13:36.486Z,16.70
2019-05-19T01:16:06.590Z,16.70
2019-05-19T01:18:36.699Z,16.70
2019-05-19T01:21:06.978Z,16.70
2019-05-19T01:23:37.153Z,16.60
2019-05-19T01:26:07.467Z,16.70
2019-05-19T01:28:37.581Z,16.70
2019-05-19T01:31:07.907Z,16.60
2019-05-19T01:33:38.507Z,16.60
2019-05-19T01:36:10.198Z,16.60
2019-05-19T01:38:40.310Z,16.60
2019-05-19T01:41:10.431Z,16.50
2019-05-19T01:43:40.755Z,16.50
2019-05-19T01:46:10.876Z,16.50
2019-05-19T01:48:40.996Z,16.50
2019-05-19T01:51:11.111Z,16.50
2019-05-19T01:53:41.233Z,16.50
2019-05-19T01:56:11.352Z,16.50
2019-05-19T01:58:41.469Z,16.40
2019-05-19T02:01:11.797Z,16.50
2019-05-19T02:03:41.917Z,16.50
2019-05-19T02:06:12.242Z,16.40
2019-05-19T02:08:42.355Z,16.40
2019-05-19T02:11:12.484Z,16.40
2019-05-19T02:13:42.593Z,16.40
2019-05-19T02:16:12.921Z,16.40
2019-05-19T02:18:44.403Z,16.40
2019-05-19T02:21:14.591Z,16.30
2019-05-19T02:23:44.710Z,16.30
2019-05-19T02:26:15.053Z,16.30
2019-05-19T02:28:45.151Z,16.30
2019-05-19T02:31:15.274Z,16.30
2019-05-19T02:33:45.597Z,16.30
2019-05-19T02:36:15.820Z,16.30
2019-05-19T02:38:46.755Z,16.30
2019-05-19T02:41:18.718Z,16.30
2019-05-19T02:43:50.888Z,16.30
2019-05-19T02:46:25.431Z,16.20
2019-05-19T02:48:57.068Z,16.20
2019-05-19T02:51:30.172Z,16.20
2019-05-19T02:54:02.018Z,16.20
2019-05-19T02:56:34.096Z,16.20
2019-05-19T02:59:06.145Z,16.20
2019-05-19T03:01:39.438Z,16.20
2019-05-19T03:04:09.758Z,16.20
2019-05-19T03:06:39.888Z,16.20
2019-05-19T03:09:09.996Z,16.10
2019-05-19T03:11:40.129Z,16.10
2019-05-19T03:14:10.237Z,16.10
2019-05-19T03:16:40.361Z,16.10
2019-05-19T03:19:13.343Z,16.10
2019-05-19T03:21:43.472Z,16.10
2019-05-19T03:24:13.787Z,16.10
2019-05-19T03:26:44.109Z,16.10
2019-05-19T03:29:15.867Z,16.00
2019-05-19T03:31:53.357Z,16.10
2019-05-19T03:34:25.117Z,16.00
2019-05-19T03:36:55.563Z,16.00
2019-05-19T03:39:25.599Z,16.00
2019-05-19T03:41:55.680Z,16.00
2019-05-19T03:44:25.801Z,16.00
2019-05-19T03:46:55.915Z,15.90
2019-05-19T03:49:26.039Z,15.90
2019-05-19T03:51:56.367Z,15.80
2019-05-19T03:54:26.479Z,15.80
2019-05-19T03:56:56.599Z,15.90
2019-05-19T03:59:26.630Z,15.90
2019-05-19T04:01:56.838Z,15.90
2019-05-19T04:04:26.959Z,15.80
2019-05-19T04:06:59.812Z,15.80
2019-05-19T04:09:30.088Z,15.70
2019-05-19T04:12:00.301Z,15.70
2019-05-19T04:14:31.327Z,15.80
2019-05-19T04:17:01.446Z,15.80
2019-05-19T04:19:32.790Z,15.80
2019-05-19T04:22:02.918Z,15.80
2019-05-19T04:24:34.654Z,15.80
2019-05-19T04:27:04.794Z,15.80
2019-05-19T04:29:38.750Z,15.80
2019-05-19T04:32:06.666Z,15.80
2019-05-19T04:34:36.782Z,15.80
2019-05-19T04:37:06.900Z,15.80
2019-05-19T04:39:37.019Z,15.80
2019-05-19T04:42:07.140Z,15.70
2019-05-19T04:44:37.260Z,15.70
2019-05-19T04:47:07.385Z,15.60
2019-05-19T04:49:37.504Z,15.70
2019-05-19T04:52:07.749Z,15.70
2019-05-19T04:54:38.150Z,15.70
2019-05-19T04:57:08.474Z,15.70
2019-05-19T04:59:38.588Z,15.70
2019-05-19T05:02:08.921Z,15.60
2019-05-19T05:04:39.042Z,15.70
2019-05-19T05:07:09.154Z,15.70
2019-05-19T05:09:39.270Z,15.70
2019-05-19T05:12:09.391Z,15.60
2019-05-19T05:14:39.891Z,15.60
2019-05-19T05:17:10.391Z,15.60
2019-05-19T05:19:40.531Z,15.60
2019-05-19T05:22:21.612Z,15.60
2019-05-19T05:24:42.452Z,15.60
2019-05-19T05:27:13.760Z,15.60
2019-05-19T05:29:44.732Z,15.50
2019-05-19T05:32:14.950Z,15.50
2019-05-19T05:34:46.314Z,15.60
2019-05-19T05:37:18.567Z,15.60
2019-05-19T05:39:48.793Z,15.50
2019-05-19T05:42:18.911Z,15.50
2019-05-19T05:44:49.028Z,15.60
2019-05-19T05:47:19.153Z,15.60
2019-05-19T05:49:50.303Z,15.60
2019-05-19T05:52:20.616Z,15.60
2019-05-19T05:54:50.734Z,15.60
2019-05-19T05:57:20.859Z,15.50
2019-05-19T05:59:51.187Z,15.50
2019-05-19T06:02:21.301Z,15.50
2019-05-19T06:04:51.417Z,15.50
2019-05-19T06:07:21.338Z,15.50
2019-05-19T06:09:51.448Z,15.50
2019-05-19T06:12:21.568Z,15.50
2019-05-19T06:14:51.688Z,15.50
2019-05-19T06:17:22.039Z,15.00
2019-05-19T06:19:52.407Z,14.50
2019-05-19T06:22:22.658Z,14.30
2019-05-19T06:24:52.983Z,14.40
2019-05-19T06:27:23.107Z,14.70
2019-05-19T06:29:53.425Z,15.00
2019-05-19T06:32:31.129Z,15.20
2019-05-19T06:35:01.270Z,15.20
2019-05-19T06:37:31.575Z,15.30
2019-05-19T06:40:02.096Z,15.30
2019-05-19T06:42:32.221Z,15.40
2019-05-19T06:45:02.339Z,15.40
2019-05-19T06:47:32.662Z,15.40
2019-05-19T06:50:02.983Z,15.40
2019-05-19T06:52:33.111Z,15.40
2019-05-19T06:55:03.253Z,15.40
2019-05-19T06:57:33.413Z,15.40
2019-05-19T07:00:04.610Z,15.50
2019-05-19T07:02:34.810Z,15.50
2019-05-19T07:05:06.495Z,15.50
2019-05-19T07:07:36.527Z,15.50
2019-05-19T07:10:08.448Z,15.50
2019-05-19T07:12:38.765Z,15.50
2019-05-19T07:15:09.498Z,15.50
2019-05-19T07:17:39.413Z,15.50
2019-05-19T07:20:09.844Z,15.50
2019-05-19T07:22:40.072Z,15.50
2019-05-19T07:25:10.589Z,15.50
2019-05-19T07:27:40.749Z,15.50
2019-05-19T07:30:11.035Z,15.50
2019-05-19T07:32:41.152Z,15.50
2019-05-19T07:35:11.480Z,15.50
2019-05-19T07:37:41.599Z,15.50
2019-05-19T07:40:11.879Z,15.50
2019-05-19T07:42:41.910Z,15.50
2019-05-19T07:45:14.002Z,15.50
2019-05-19T07:47:44.126Z,15.60
2019-05-19T07:50:14.240Z,15.60
2019-05-19T07:52:44.359Z,15.60
2019-05-19T07:55:14.684Z,15.60
2019-05-19T07:57:45.213Z,15.60
2019-05-19T08:00:15.535Z,15.60
2019-05-19T08:02:45.863Z,15.60
2019-05-19T08:05:16.387Z,15.60
2019-05-19T08:07:46.521Z,15.60
2019-05-19T08:10:17.244Z,15.60
2019-05-19T08:12:47.359Z,15.60
2019-05-19T08:15:17.484Z,15.60
2019-05-19T08:17:47.599Z,15.60
2019-05-19T08:20:19.362Z,15.60
2019-05-19T08:22:51.372Z,15.70
2019-05-19T08:25:21.235Z,15.70
2019-05-19T08:27:51.352Z,15.70
2019-05-19T08:30:21.462Z,15.70
2019-05-19T08:32:51.524Z,15.70
2019-05-19T08:35:21.528Z,15.70
2019-05-19T08:37:51.562Z,15.70
2019-05-19T08:40:24.410Z,15.80
2019-05-19T08:42:54.728Z,15.80
2019-05-19T08:45:25.053Z,15.80
2019-05-19T08:47:55.175Z,15.80
2019-05-19T08:50:25.315Z,15.40
2019-05-19T08:52:55.413Z,15.30
2019-05-19T08:55:25.535Z,15.40
2019-05-19T08:57:55.853Z,15.50
2019-05-19T09:00:26.928Z,15.60
2019-05-19T09:02:57.115Z,15.70
2019-05-19T09:05:27.246Z,15.70
2019-05-19T09:07:57.389Z,15.70
2019-05-19T09:10:29.117Z,15.70
2019-05-19T09:12:59.438Z,15.70
2019-05-19T09:15:29.554Z,15.80
2019-05-19T09:17:59.675Z,15.80
2019-05-19T09:20:29.793Z,15.80
2019-05-19T09:23:00.121Z,15.80
2019-05-19T09:25:30.249Z,15.90
2019-05-19T09:28:00.278Z,15.90
2019-05-19T09:30:30.477Z,15.90
2019-05-19T09:33:00.596Z,15.90
2019-05-19T09:35:30.713Z,16.00
2019-05-19T09:38:01.040Z,16.00
2019-05-19T09:40:31.362Z,16.00
2019-05-19T09:43:01.493Z,16.00
2019-05-19T09:45:31.805Z,16.00
2019-05-19T09:48:01.935Z,16.00
2019-05-19T09:50:32.050Z,16.10
2019-05-19T09:53:02.237Z,16.10
2019-05-19T09:55:32.691Z,16.20
2019-05-19T09:58:03.018Z,16.40
2019-05-19T10:00:33.134Z,16.40
2019-05-19T10:03:03.329Z,16.50
2019-05-19T10:05:33.371Z,16.50
2019-05-19T10:08:03.491Z,16.50
2019-05-19T10:10:42.965Z,16.50
2019-05-19T10:13:13.151Z,16.60
2019-05-19T10:15:43.279Z,16.70
2019-05-19T10:18:13.427Z,16.70
2019-05-19T10:20:43.714Z,16.80
2019-05-19T10:23:13.837Z,16.80
2019-05-19T10:25:43.785Z,16.90
2019-05-19T10:28:13.868Z,17.00
2019-05-19T10:30:43.996Z,17.10
2019-05-19T10:33:14.311Z,17.20
2019-05-19T10:35:44.429Z,17.30
2019-05-19T10:38:17.735Z,17.40
2019-05-19T10:40:46.926Z,17.40
2019-05-19T10:43:17.054Z,17.50
2019-05-19T10:45:48.797Z,17.50
2019-05-19T10:48:19.122Z,17.60
2019-05-19T10:50:49.248Z,17.70
2019-05-19T10:53:19.385Z,17.80
2019-05-19T10:55:49.683Z,17.80
2019-05-19T10:58:19.804Z,17.90
2019-05-19T11:00:49.922Z,18.00
2019-05-19T11:03:20.053Z,18.00
2019-05-19T11:05:50.366Z,18.10
2019-05-19T11:08:20.607Z,18.20
2019-05-19T11:10:50.807Z,18.50
2019-05-19T11:13:20.867Z,18.70
2019-05-19T11:15:51.046Z,18.90
2019-05-19T11:18:21.169Z,19.20
2019-05-19T11:20:51.284Z,19.20
2019-05-19T11:23:21.405Z,19.20
2019-05-19T11:25:51.989Z,19.10
2019-05-19T11:28:22.258Z,19.40
2019-05-19T11:30:52.582Z,19.50
2019-05-19T11:33:22.904Z,19.40
2019-05-19T11:35:53.438Z,19.40
2019-05-19T11:38:23.552Z,19.60
2019-05-19T11:40:53.673Z,19.50
2019-05-19T11:43:23.997Z,19.50
2019-05-19T11:45:54.337Z,19.60
2019-05-19T11:48:24.444Z,19.50
2019-05-19T11:50:54.765Z,19.40
2019-05-19T11:53:24.883Z,19.40
2019-05-19T11:56:06.154Z,19.30
2019-05-19T11:58:26.987Z,19.20
2019-05-19T12:00:57.288Z,19.20
2019-05-19T12:03:27.440Z,19.20
2019-05-19T12:05:57.735Z,19.10
2019-05-19T12:08:27.858Z,19.10
2019-05-19T12:10:57.970Z,19.10
2019-05-19T12:13:28.090Z,19.00
2019-05-19T12:15:58.413Z,19.00
2019-05-19T12:18:28.539Z,19.00
2019-05-19T12:20:58.655Z,19.10
2019-05-19T12:23:28.780Z,19.10
2019-05-19T12:25:58.927Z,19.10
2019-05-19T12:28:29.419Z,19.20
2019-05-19T12:30:59.540Z,19.30
2019-05-19T12:33:29.662Z,19.30
2019-05-19T12:35:59.777Z,19.40
2019-05-19T12:38:29.895Z,19.40
2019-05-19T12:41:00.014Z,19.50
2019-05-19T12:43:30.140Z,19.50
2019-05-19T12:46:00.469Z,19.60
2019-05-19T12:48:30.588Z,19.60
2019-05-19T12:51:00.696Z,19.60
2019-05-19T12:53:31.026Z,19.70
2019-05-19T12:56:01.141Z,19.70
2019-05-19T12:58:31.510Z,19.70
2019-05-19T13:01:01.790Z,19.80
2019-05-19T13:03:32.113Z,19.80
2019-05-19T13:06:02.230Z,19.80
2019-05-19T13:08:32.453Z,19.80
2019-05-19T13:11:02.675Z,19.80
2019-05-19T13:13:32.799Z,19.90
2019-05-19T13:16:02.914Z,19.90
2019-05-19T13:18:33.033Z,20.00
2019-05-19T13:21:03.155Z,20.00
2019-05-19T13:23:33.269Z,20.10
2019-05-19T13:26:03.391Z,20.00
2019-05-19T13:28:33.509Z,20.00
2019-05-19T13:31:03.839Z,20.30
2019-05-19T13:33:33.936Z,20.20
2019-05-19T13:36:04.276Z,20.20
2019-05-19T13:38:40.601Z,20.20
2019-05-19T13:41:11.538Z,20.30
2019-05-19T13:43:47.400Z,20.30
2019-05-19T13:46:21.606Z,20.50
2019-05-19T13:48:52.303Z,20.40
2019-05-19T13:51:22.488Z,20.40
2019-05-19T13:53:52.672Z,20.50
2019-05-19T13:56:22.864Z,20.40
2019-05-19T13:58:53.041Z,20.40
2019-05-19T14:01:28.554Z,20.40
2019-05-19T14:03:54.850Z,20.40
2019-05-19T14:06:24.947Z,20.30
2019-05-19T14:08:55.229Z,20.30
2019-05-19T14:11:25.247Z,20.20
2019-05-19T14:13:56.370Z,20.30
2019-05-19T14:16:26.579Z,20.20
2019-05-19T14:18:56.764Z,20.20
2019-05-19T14:21:26.978Z,20.30
2019-05-19T14:23:57.325Z,20.40
2019-05-19T14:26:27.514Z,20.40
2019-05-19T14:28:57.574Z,20.40
2019-05-19T14:31:27.795Z,20.50
2019-05-19T14:33:58.071Z,20.80
2019-05-19T14:36:28.232Z,21.10
2019-05-19T14:39:05.317Z,21.10
2019-05-19T14:41:34.740Z,21.20
2019-05-19T14:44:05.021Z,21.10
2019-05-19T14:46:35.217Z,21.10
2019-05-19T14:49:05.168Z,21.10
2019-05-19T14:51:35.381Z,21.40
2019-05-19T14:54:05.834Z,21.70
2019-05-19T14:56:35.947Z,21.80
2019-05-19T14:59:06.275Z,21.80
2019-05-19T15:01:36.624Z,21.90
2019-05-19T15:04:06.798Z,21.90
2019-05-19T15:06:36.883Z,22.00
2019-05-19T15:09:07.277Z,21.90
2019-05-19T15:11:37.395Z,22.00
2019-05-19T15:14:07.436Z,22.00
2019-05-19T15:16:37.527Z,21.90
2019-05-19T15:19:07.527Z,21.90
2019-05-19T15:21:37.770Z,22.00
2019-05-19T15:24:07.955Z,22.00
2019-05-19T15:26:37.941Z,21.90
2019-05-19T15:29:07.962Z,21.90
2019-05-19T15:31:38.187Z,21.90
2019-05-19T15:34:08.285Z,21.90
2019-05-19T15:36:38.483Z,21.80
2019-05-19T15:39:08.511Z,21.80
2019-05-19T15:41:38.631Z,21.80
2019-05-19T15:44:08.816Z,21.80
2019-05-19T15:46:39.002Z,21.80
2019-05-19T15:49:09.191Z,21.80
2019-05-19T15:51:39.368Z,21.80
2019-05-19T15:54:09.572Z,21.80
2019-05-19T15:56:39.740Z,21.80
2019-05-19T15:59:09.920Z,21.70
2019-05-19T16:01:40.106Z,21.70
2019-05-19T16:04:10.288Z,21.70
2019-05-19T16:06:40.471Z,21.70
2019-05-19T16:09:10.865Z,21.70
2019-05-19T16:11:41.045Z,21.60
2019-05-19T16:14:11.229Z,21.60
2019-05-19T16:16:41.418Z,21.60
2019-05-19T16:19:11.597Z,21.60
2019-05-19T16:21:42.395Z,21.60
2019-05-19T16:24:12.581Z,21.60
2019-05-19T16:26:42.764Z,21.50
2019-05-19T16:29:13.364Z,21.60
2019-05-19T16:31:43.551Z,21.50
2019-05-19T16:34:13.730Z,21.50
2019-05-19T16:36:43.915Z,21.50
2019-05-19T16:39:14.093Z,21.50
2019-05-19T16:41:44.279Z,21.40
2019-05-19T16:44:14.439Z,21.40
2019-05-19T16:46:44.620Z,21.40
2019-05-19T16:49:14.782Z,21.40
2019-05-19T16:51:45.083Z,21.40
2019-05-19T16:54:19.364Z,21.40
2019-05-19T16:56:49.554Z,21.40
2019-05-19T16:59:19.736Z,21.30
2019-05-19T17:01:49.921Z,21.30
2019-05-19T17:04:20.107Z,21.20
2019-05-19T17:06:50.212Z,21.20
2019-05-19T17:09:20.278Z,21.20
2019-05-19T17:11:50.409Z,21.20
2019-05-19T17:14:20.618Z,21.10
2019-05-19T17:16:50.802Z,21.10
2019-05-19T17:19:21.004Z,21.10
2019-05-19T17:21:51.381Z,21.10
2019-05-19T17:24:21.565Z,21.00
2019-05-19T17:26:51.675Z,21.00
2019-05-19T17:29:21.858Z,21.00
2019-05-19T17:32:04.026Z,20.90
2019-05-19T17:34:23.738Z,20.90
2019-05-19T17:36:53.762Z,20.90
2019-05-19T17:39:23.874Z,20.90
2019-05-19T17:41:53.808Z,20.80
2019-05-19T17:44:23.863Z,20.80
2019-05-19T17:46:54.063Z,20.80
2019-05-19T17:49:24.440Z,20.80
2019-05-19T17:51:54.378Z,20.70
2019-05-19T17:54:25.225Z,20.70
2019-05-19T17:56:57.259Z,20.70
2019-05-19T17:59:27.446Z,20.60
2019-05-19T18:01:57.627Z,20.60
2019-05-19T18:04:27.634Z,20.60
2019-05-19T18:06:57.792Z,20.60
2019-05-19T18:09:28.074Z,20.50
2019-05-19T18:11:58.162Z,20.50
2019-05-19T18:14:28.167Z,20.50
2019-05-19T18:16:58.328Z,20.50
2019-05-19T18:19:28.298Z,20.40
2019-05-19T18:21:58.504Z,20.40
2019-05-19T18:24:28.504Z,20.40
2019-05-19T18:26:58.667Z,20.40
2019-05-19T18:29:31.318Z,20.40
2019-05-19T18:32:00.675Z,20.30
2019-05-19T18:34:30.859Z,20.30
2019-05-19T18:37:00.985Z,20.30
2019-05-19T18:39:31.163Z,20.30
2019-05-19T18:42:01.532Z,20.20
2019-05-19T18:44:31.485Z,20.20
2019-05-19T18:47:01.682Z,20.20
2019-05-19T18:49:31.880Z,20.10
2019-05-19T18:52:02.058Z,20.10
2019-05-19T18:54:32.242Z,20.10
2019-05-19T18:57:02.426Z,20.10
2019-05-19T18:59:46.508Z,20.10
2019-05-19T19:02:04.234Z,20.00
2019-05-19T19:04:37.285Z,20.00
2019-05-19T19:07:07.469Z,20.00
2019-05-19T19:09:37.455Z,19.90
2019-05-19T19:12:07.658Z,19.90
2019-05-19T19:14:37.808Z,19.90
2019-05-19T19:17:08.181Z,19.90
2019-05-19T19:19:38.364Z,19.90
2019-05-19T19:22:08.543Z,19.80
2019-05-19T19:24:38.787Z,19.80
2019-05-19T19:27:09.124Z,19.80
2019-05-19T19:29:39.306Z,19.70
2019-05-19T19:32:09.580Z,19.70
2019-05-19T19:34:39.874Z,19.70
2019-05-19T19:37:09.961Z,19.70
2019-05-19T19:39:40.142Z,19.60
2019-05-19T19:42:10.328Z,19.60
2019-05-19T19:44:40.715Z,19.60
2019-05-19T19:47:10.833Z,19.60
2019-05-19T19:49:40.964Z,19.50
2019-05-19T19:52:11.428Z,19.50
2019-05-19T19:54:41.812Z,19.50
2019-05-19T19:57:11.997Z,19.50
2019-05-19T19:59:42.389Z,19.50
2019-05-19T20:02:12.632Z,19.40
2019-05-19T20:04:42.767Z,19.40
2019-05-19T20:07:12.946Z,19.40
2019-05-19T20:09:43.131Z,19.40
2019-05-19T20:12:13.318Z,19.30
2019-05-19T20:14:44.733Z,19.30
2019-05-19T20:17:14.852Z,19.30
2019-05-19T20:19:44.996Z,19.30
2019-05-19T20:22:15.088Z,19.30
2019-05-19T20:24:45.266Z,19.20
2019-05-19T20:27:15.452Z,19.20
2019-05-19T20:29:45.842Z,19.20
2019-05-19T20:32:16.040Z,19.20
2019-05-19T20:34:46.215Z,19.10
2019-05-19T20:37:16.400Z,19.10
2019-05-19T20:39:46.793Z,19.10
2019-05-19T20:42:17.211Z,19.10
2019-05-19T20:44:47.574Z,19.10
2019-05-19T20:47:17.759Z,19.00
2019-05-19T20:49:47.944Z,19.00
2019-05-19T20:52:18.132Z,19.00
2019-05-19T20:54:48.323Z,18.90
2019-05-19T20:57:18.486Z,18.90
2019-05-19T20:59:48.653Z,18.90
2019-05-19T21:02:18.842Z,18.90
2019-05-19T21:04:49.028Z,18.80
2019-05-19T21:07:19.211Z,18.80
2019-05-19T21:09:49.399Z,18.80
2019-05-19T21:12:19.597Z,18.80
2019-05-19T21:14:49.771Z,18.80
2019-05-19T21:17:19.952Z,18.70
2019-05-19T21:19:50.131Z,18.70
2019-05-19T21:22:20.324Z,18.70
2019-05-19T21:24:50.709Z,18.60
2019-05-19T21:27:20.901Z,18.60
2019-05-19T21:29:51.081Z,18.60
2019-05-19T21:32:21.480Z,18.60
2019-05-19T21:34:51.663Z,18.60
2019-05-19T21:37:21.850Z,18.60
2019-05-19T21:39:52.030Z,18.50
2019-05-19T21:42:22.092Z,18.50
2019-05-19T21:44:52.206Z,18.50
2019-05-19T21:47:22.389Z,18.40
2019-05-19T21:49:52.569Z,18.40
2019-05-19T21:52:22.758Z,18.40
2019-05-19T21:54:52.939Z,18.40
2019-05-19T21:57:23.012Z,18.40
2019-05-19T21:59:53.110Z,18.30
2019-05-19T22:02:23.297Z,18.30
2019-05-19T22:04:53.486Z,18.30
2019-05-19T22:07:27.964Z,18.20
2019-05-19T22:09:58.149Z,18.20
2019-05-19T22:12:28.337Z,18.20
2019-05-19T22:14:58.519Z,18.20
2019-05-19T22:17:28.751Z,18.10
2019-05-19T22:19:59.074Z,18.10
2019-05-19T22:22:29.227Z,18.10
2019-05-19T22:24:59.409Z,18.10
2019-05-19T22:27:29.592Z,18.00
2019-05-19T22:29:59.781Z,18.00
2019-05-19T22:32:29.962Z,18.00
2019-05-19T22:35:00.147Z,18.00
2019-05-19T22:37:30.334Z,18.00
2019-05-19T22:40:00.930Z,17.90
2019-05-19T22:42:31.118Z,17.90
2019-05-19T22:45:01.318Z,17.90
2019-05-19T22:47:31.495Z,17.90
2019-05-19T22:50:01.647Z,17.90
2019-05-19T22:52:32.066Z,17.90
2019-05-19T22:55:02.230Z,17.90
2019-05-19T22:57:32.398Z,17.90
2019-05-19T23:00:02.585Z,17.90
2019-05-19T23:02:32.769Z,17.80
2019-05-19T23:05:02.967Z,17.80
2019-05-19T23:07:33.040Z,17.90
2019-05-19T23:10:03.546Z,17.80
2019-05-19T23:12:33.926Z,17.80
2019-05-19T23:15:06.974Z,17.80
2019-05-19T23:17:37.128Z,17.80
2019-05-19T23:20:07.451Z,17.80
2019-05-19T23:22:38.809Z,17.70
2019-05-19T23:25:08.759Z,17.70
2019-05-19T23:27:38.747Z,17.80
2019-05-19T23:30:09.862Z,17.80
2019-05-19T23:32:39.973Z,17.80
2019-05-19T23:35:10.375Z,17.70
2019-05-19T23:37:40.553Z,17.70
2019-05-19T23:40:11.145Z,17.70
2019-05-19T23:42:41.329Z,17.70
2019-05-19T23:45:11.888Z,17.70
2019-05-19T23:47:42.113Z,17.70
2019-05-19T23:50:12.454Z,17.60
2019-05-19T23:52:42.578Z,17.70
2019-05-19T23:55:13.542Z,17.70
2019-05-19T23:57:43.729Z,17.60
